Time;durP1;ratioP1;P1;durP2;ratioP2;P2;SDS_P1;SDS_P2;PMS_P1;PMS_P2;Temp;Humidity;BMP_temperature;BMP_pressure;BME280_temperature;BME280_humidity;BME280_pressure;Samples;Min_cycle;Max_cycle;Signal;HPM_P1;HPM_P2
2021/01/30 00:00:12;;;;;;;2.63;0.63;;;8.80;99.90;;;;;;5014675;28;20540;-70
2021/01/30 00:02:38;;;;;;;2.13;0.40;;;8.80;99.90;;;;;;5011477;28;20653;-70
2021/01/30 00:05:05;;;;;;;7.73;2.10;;;8.80;99.90;;;;;;5015617;28;20437;-70
2021/01/30 00:07:30;;;;;;;2.00;0.40;;;8.80;99.90;;;;;;5012445;28;20189;-70
2021/01/30 00:09:56;;;;;;;2.20;0.50;;;8.80;99.90;;;;;;5013519;28;20453;-69
2021/01/30 00:12:21;;;;;;;2.63;0.70;;;8.70;99.90;;;;;;5011948;28;20242;-69
2021/01/30 00:14:47;;;;;;;9.20;0.43;;;8.80;99.90;;;;;;5016313;28;20198;-70
2021/01/30 00:17:12;;;;;;;1.80;0.20;;;8.70;99.90;;;;;;5017751;28;20181;-69
2021/01/30 00:19:38;;;;;;;2.57;0.60;;;8.70;99.90;;;;;;5014902;28;20206;-70
2021/01/30 00:22:08;;;;;;;4.17;1.33;;;8.70;99.90;;;;;;5016496;28;20221;-70
2021/01/30 00:24:34;;;;;;;1.80;0.23;;;8.60;99.90;;;;;;5016881;28;20278;-69
2021/01/30 00:27:02;;;;;;;2.20;0.67;;;8.60;99.90;;;;;;5015228;28;20473;-70
2021/01/30 00:29:30;;;;;;;2.60;0.80;;;8.60;99.90;;;;;;5016747;28;20233;-70
2021/01/30 00:31:55;;;;;;;2.50;0.80;;;8.60;99.90;;;;;;5016369;28;20463;-71
2021/01/30 00:34:24;;;;;;;1.90;0.33;;;8.60;99.90;;;;;;5019729;28;20819;-69
2021/01/30 00:36:51;;;;;;;2.93;0.97;;;8.50;99.90;;;;;;5016329;28;20257;-69
2021/01/30 00:39:16;;;;;;;2.73;0.80;;;8.50;99.90;;;;;;5015662;28;20430;-69
2021/01/30 00:41:42;;;;;;;1.80;0.20;;;8.50;99.90;;;;;;5015239;28;20468;-68
2021/01/30 00:44:08;;;;;;;2.10;0.43;;;8.50;99.90;;;;;;5017252;28;20190;-70
2021/01/30 00:46:33;;;;;;;3.30;0.50;;;8.50;99.90;;;;;;5014971;28;20261;-70
2021/01/30 00:48:59;;;;;;;2.00;0.40;;;8.50;99.90;;;;;;5011560;28;20453;-69
2021/01/30 00:51:24;;;;;;;2.40;0.73;;;8.50;99.90;;;;;;5030849;28;20257;-70
2021/01/30 00:53:50;;;;;;;1.80;0.20;;;8.50;99.90;;;;;;5014772;28;20367;-71
2021/01/30 00:56:16;;;;;;;1.90;0.30;;;8.50;99.90;;;;;;5013831;28;20191;-70
2021/01/30 00:58:42;;;;;;;3.83;1.63;;;8.50;99.90;;;;;;5018389;28;20171;-70
2021/01/30 01:01:09;;;;;;;2.20;0.70;;;8.50;99.90;;;;;;5017367;28;20457;-69
2021/01/30 01:03:35;;;;;;;3.90;1.03;;;8.50;99.90;;;;;;5012049;28;20445;-70
2021/01/30 01:06:00;;;;;;;2.00;0.30;;;8.50;99.90;;;;;;5010965;28;20452;-72
2021/01/30 01:08:26;;;;;;;1.83;0.27;;;8.50;99.90;;;;;;5012909;28;20210;-70
2021/01/30 01:10:52;;;;;;;1.80;0.20;;;8.50;99.90;;;;;;5020799;28;20641;-70
2021/01/30 01:13:20;;;;;;;3.07;0.83;;;8.50;99.90;;;;;;5027680;28;20473;-70
2021/01/30 01:15:46;;;;;;;2.10;0.50;;;8.50;99.90;;;;;;5016582;28;20174;-70
2021/01/30 01:18:11;;;;;;;2.67;1.43;;;8.50;99.90;;;;;;5013715;28;20430;-70
2021/01/30 01:20:37;;;;;;;1.80;0.20;;;8.50;99.90;;;;;;5017571;28;20531;-71
2021/01/30 01:23:03;;;;;;;4.00;1.20;;;8.50;99.90;;;;;;5014762;28;20190;-69
2021/01/30 01:25:28;;;;;;;2.10;0.40;;;8.50;99.90;;;;;;5014086;28;20198;-70
2021/01/30 01:27:54;;;;;;;2.40;0.67;;;8.50;99.90;;;;;;5016989;28;20645;-69
2021/01/30 01:30:22;;;;;;;2.37;0.43;;;8.50;99.90;;;;;;5016737;28;20251;-70
2021/01/30 01:32:50;;;;;;;5.57;0.90;;;8.50;99.90;;;;;;5014848;28;20213;-71
2021/01/30 01:35:19;;;;;;;2.40;0.50;;;8.40;99.90;;;;;;5013673;28;20436;-70
2021/01/30 01:37:46;;;;;;;4.37;1.00;;;8.40;99.90;;;;;;5013652;28;20848;-69
2021/01/30 01:40:14;;;;;;;3.50;0.67;;;8.40;99.90;;;;;;5015887;28;21180;-70
2021/01/30 01:42:39;;;;;;;2.20;0.60;;;8.30;99.90;;;;;;5013640;28;20480;-70
2021/01/30 01:45:06;;;;;;;4.87;1.90;;;8.30;99.90;;;;;;5019174;28;20444;-70
2021/01/30 01:47:38;;;;;;;2.57;0.43;;;8.30;99.90;;;;;;5017955;28;20187;-70
2021/01/30 01:50:26;;;;;;;2.30;0.50;;;8.30;99.90;;;;;;5013685;28;20500;-71
2021/01/30 01:52:57;;;;;;;6.10;0.73;;;8.30;99.90;;;;;;5031062;28;20460;-69
2021/01/30 01:55:23;;;;;;;1.80;0.20;;;8.30;99.90;;;;;;5011914;28;20437;-70
2021/01/30 01:57:52;;;;;;;1.80;0.20;;;8.30;99.90;;;;;;5020541;28;20452;-69
2021/01/30 02:00:20;;;;;;;2.30;0.40;;;8.30;99.90;;;;;;5014174;28;20206;-69
2021/01/30 02:02:51;;;;;;;2.13;0.60;;;8.30;99.90;;;;;;5013014;28;20437;-70
2021/01/30 02:05:38;;;;;;;1.80;0.20;;;8.30;99.90;;;;;;5013707;28;20472;-70
2021/01/30 02:08:09;;;;;;;1.80;0.20;;;8.30;99.90;;;;;;5019257;28;20452;-69
2021/01/30 02:10:39;;;;;;;1.90;0.30;;;8.30;99.90;;;;;;5012814;28;20488;-70
2021/01/30 02:13:15;;;;;;;2.17;0.70;;;8.20;99.90;;;;;;5011982;28;21039;-71
2021/01/30 02:15:43;;;;;;;2.20;0.30;;;8.20;99.90;;;;;;5021506;28;20432;-69
2021/01/30 02:18:27;;;;;;;1.80;0.20;;;8.10;99.90;;;;;;5018226;28;20536;-69
2021/01/30 02:21:07;;;;;;;2.67;0.33;;;8.10;99.90;;;;;;5013395;28;20462;-70
2021/01/30 02:24:00;;;;;;;1.80;0.20;;;8.10;99.90;;;;;;5011567;28;20433;-68
2021/01/30 02:26:49;;;;;;;2.00;0.57;;;8.10;99.90;;;;;;5016307;28;20527;-73
2021/01/30 02:29:38;;;;;;;1.80;0.20;;;8.10;99.90;;;;;;5010390;28;20528;-70
2021/01/30 02:32:45;;;;;;;1.80;0.20;;;8.10;99.90;;;;;;4997948;28;20488;-71
2021/01/30 02:35:11;;;;;;;1.80;0.20;;;8.00;99.90;;;;;;5012811;28;20500;-71
2021/01/30 02:37:43;;;;;;;2.27;0.50;;;8.00;99.90;;;;;;5019861;28;20766;-71
2021/01/30 02:40:14;;;;;;;1.83;0.20;;;8.00;99.90;;;;;;5021702;28;20343;-71
2021/01/30 02:42:53;;;;;;;1.80;0.20;;;8.00;99.90;;;;;;5010984;28;20519;-70
2021/01/30 02:45:22;;;;;;;2.57;1.00;;;8.00;99.90;;;;;;5015442;28;20967;-71
2021/01/30 02:48:05;;;;;;;4.63;0.40;;;7.90;99.90;;;;;;5012508;28;20450;-70
2021/01/30 02:50:39;;;;;;;2.77;0.80;;;7.90;99.90;;;;;;5016126;28;20524;-70
2021/01/30 02:53:06;;;;;;;1.90;0.30;;;7.90;99.90;;;;;;5022328;28;20461;-71
2021/01/30 02:55:33;;;;;;;1.80;0.20;;;7.90;99.90;;;;;;5012848;28;20441;-70
2021/01/30 02:58:01;;;;;;;1.90;0.20;;;7.90;99.90;;;;;;5006292;28;20453;-72
2021/01/30 03:00:27;;;;;;;3.60;0.80;;;8.00;99.90;;;;;;5012956;28;20544;-70
2021/01/30 03:02:53;;;;;;;2.93;0.77;;;7.90;99.90;;;;;;5012148;28;20864;-70
2021/01/30 03:05:20;;;;;;;2.93;1.07;;;8.00;99.90;;;;;;5018146;28;20452;-71
2021/01/30 03:07:54;;;;;;;3.50;1.30;;;7.90;99.90;;;;;;5013408;28;20450;-70
2021/01/30 03:10:29;;;;;;;4.20;3.40;;;7.90;99.90;;;;;;5014272;28;20467;-70
2021/01/30 03:13:16;;;;;;;1.87;0.20;;;7.90;99.90;;;;;;5023310;28;20465;-70
2021/01/30 03:15:46;;;;;;;1.80;0.20;;;7.90;99.90;;;;;;5011058;28;20417;-70
2021/01/30 03:18:14;;;;;;;1.90;0.30;;;7.90;99.90;;;;;;5012635;28;20501;-70
2021/01/30 03:20:42;;;;;;;1.80;0.20;;;7.90;99.90;;;;;;5011907;28;20465;-70
2021/01/30 03:23:09;;;;;;;1.90;0.30;;;8.00;99.90;;;;;;5013584;28;20533;-70
2021/01/30 03:25:38;;;;;;;2.60;0.93;;;8.00;99.90;;;;;;5014020;28;20668;-70
2021/01/30 03:28:04;;;;;;;6.00;1.07;;;8.00;99.90;;;;;;5011033;28;20433;-72
2021/01/30 03:30:31;;;;;;;2.63;0.67;;;8.00;99.90;;;;;;5017376;28;20472;-70
2021/01/30 03:32:57;;;;;;;1.90;0.30;;;7.90;99.90;;;;;;5011492;28;20210;-70
2021/01/30 03:35:23;;;;;;;1.80;0.20;;;8.00;99.90;;;;;;5023591;28;20441;-71
2021/01/30 03:37:48;;;;;;;2.47;0.70;;;8.00;99.90;;;;;;5012088;28;20646;-71
2021/01/30 03:40:16;;;;;;;2.43;0.60;;;8.00;99.90;;;;;;5012351;28;20552;-70
2021/01/30 03:42:41;;;;;;;1.80;0.20;;;8.00;99.90;;;;;;5011084;28;20650;-71
2021/01/30 03:45:11;;;;;;;1.90;0.30;;;8.00;99.90;;;;;;5012198;28;20445;-71
2021/01/30 03:47:37;;;;;;;1.90;0.20;;;8.00;99.90;;;;;;5014155;28;20542;-70
2021/01/30 03:50:06;;;;;;;2.43;0.47;;;8.00;99.90;;;;;;5015424;28;20457;-70
2021/01/30 03:52:32;;;;;;;1.90;0.20;;;8.00;99.90;;;;;;5017899;28;20473;-70
2021/01/30 03:54:57;;;;;;;3.50;0.87;;;8.00;99.90;;;;;;5014501;28;20445;-70
2021/01/30 03:57:23;;;;;;;2.30;0.30;;;7.90;99.90;;;;;;5015960;28;20556;-71
2021/01/30 03:59:49;;;;;;;2.00;0.40;;;7.90;99.90;;;;;;5022308;28;20305;-70
2021/01/30 04:02:15;;;;;;;1.87;0.30;;;7.90;99.90;;;;;;5016053;28;20269;-70
2021/01/30 04:04:42;;;;;;;2.10;0.40;;;7.90;99.90;;;;;;5018418;28;20552;-70
2021/01/30 04:07:08;;;;;;;1.90;0.20;;;7.90;99.90;;;;;;5016910;28;20175;-71
2021/01/30 04:09:33;;;;;;;1.90;0.30;;;7.90;99.90;;;;;;5022824;28;20436;-71
2021/01/30 04:11:59;;;;;;;2.20;0.30;;;7.90;99.90;;;;;;5027216;28;20548;-70
2021/01/30 04:14:24;;;;;;;3.30;0.77;;;7.90;99.90;;;;;;5025710;28;20713;-70
2021/01/30 04:16:50;;;;;;;2.00;0.40;;;7.90;99.90;;;;;;5017633;28;20542;-70
2021/01/30 04:19:16;;;;;;;1.83;0.20;;;7.90;99.90;;;;;;5024239;28;20195;-71
2021/01/30 04:21:41;;;;;;;1.87;0.20;;;7.90;99.90;;;;;;5015615;28;20852;-70
2021/01/30 04:24:07;;;;;;;2.60;0.57;;;7.90;99.90;;;;;;5022236;28;20181;-70
2021/01/30 04:26:33;;;;;;;1.90;0.20;;;7.90;99.90;;;;;;5017536;28;20246;-70
2021/01/30 04:28:58;;;;;;;1.83;0.20;;;7.90;99.90;;;;;;5016021;28;20182;-68
2021/01/30 04:31:24;;;;;;;1.83;0.20;;;7.90;99.90;;;;;;5026102;28;20306;-69
2021/01/30 04:33:50;;;;;;;2.00;0.40;;;7.80;99.90;;;;;;5025117;28;20573;-69
2021/01/30 04:36:18;;;;;;;2.00;0.40;;;7.80;99.90;;;;;;5016985;28;20191;-69
2021/01/30 04:38:44;;;;;;;4.47;2.50;;;7.70;99.90;;;;;;5016708;28;20461;-68
2021/01/30 04:41:15;;;;;;;1.90;0.20;;;7.70;99.90;;;;;;5016062;28;20576;-69
2021/01/30 04:43:50;;;;;;;2.00;0.40;;;7.70;99.90;;;;;;5015005;28;20456;-69
2021/01/30 04:46:35;;;;;;;1.83;0.20;;;7.70;99.90;;;;;;5017384;28;20469;-69
2021/01/30 04:49:10;;;;;;;1.80;0.20;;;7.70;99.90;;;;;;5014616;28;20777;-70
2021/01/30 04:51:38;;;;;;;2.03;0.53;;;7.70;99.90;;;;;;5013300;28;20957;-69
2021/01/30 04:54:09;;;;;;;1.80;0.20;;;7.70;99.90;;;;;;5018997;28;20462;-70
2021/01/30 04:57:12;;;;;;;1.90;0.30;;;7.70;99.90;;;;;;5021466;28;21206;-69
2021/01/30 04:59:59;;;;;;;1.80;0.30;;;7.70;99.90;;;;;;5015720;28;20432;-72
2021/01/30 05:02:33;;;;;;;1.80;0.20;;;7.70;99.90;;;;;;5015374;28;20445;-69
2021/01/30 05:04:59;;;;;;;2.10;0.43;;;7.70;99.90;;;;;;5016726;28;20472;-69
2021/01/30 05:07:29;;;;;;;1.80;0.20;;;7.60;99.90;;;;;;5015420;28;20873;-69
2021/01/30 05:10:01;;;;;;;3.80;0.60;;;7.70;99.90;;;;;;5013525;28;20461;-69
2021/01/30 05:13:07;;;;;;;2.03;0.57;;;7.60;99.90;;;;;;5013338;28;20465;-70
2021/01/30 05:15:41;;;;;;;2.00;0.60;;;7.60;99.90;;;;;;5014976;28;20468;-69
2021/01/30 05:18:22;;;;;;;2.40;0.83;;;7.60;99.90;;;;;;5015340;28;20545;-69
2021/01/30 05:20:56;;;;;;;1.80;0.20;;;7.60;99.90;;;;;;5013571;28;20547;-69
2021/01/30 05:23:24;;;;;;;1.80;0.20;;;7.60;99.90;;;;;;5013346;28;20441;-70
2021/01/30 05:25:57;;;;;;;2.00;0.47;;;7.70;99.90;;;;;;5009749;28;20437;-69
2021/01/30 05:28:34;;;;;;;1.80;0.20;;;7.60;99.90;;;;;;5014327;28;20429;-70
2021/01/30 05:31:15;;;;;;;1.80;0.30;;;7.60;99.90;;;;;;5013962;28;20844;-69
2021/01/30 05:34:01;;;;;;;1.90;0.30;;;7.60;99.90;;;;;;5014780;28;20495;-69
2021/01/30 05:36:42;;;;;;;3.73;0.87;;;7.60;99.90;;;;;;5010656;28;20437;-69
2021/01/30 05:39:43;;;;;;;1.90;0.30;;;7.60;99.90;;;;;;5014508;28;20449;-69
2021/01/30 05:42:21;;;;;;;3.40;0.73;;;7.60;99.90;;;;;;5011999;28;20536;-69
2021/01/30 05:44:51;;;;;;;1.90;0.40;;;7.60;99.90;;;;;;5011774;28;20528;-69
2021/01/30 05:47:22;;;;;;;2.00;0.30;;;7.60;99.90;;;;;;5017844;28;20469;-69
2021/01/30 05:50:02;;;;;;;1.90;0.30;;;7.60;99.90;;;;;;5016299;28;20465;-70
2021/01/30 05:52:31;;;;;;;2.20;0.60;;;7.60;99.90;;;;;;5020797;28;20464;-70
2021/01/30 05:54:57;;;;;;;1.80;0.20;;;7.50;99.90;;;;;;5007901;28;20473;-69
2021/01/30 05:57:23;;;;;;;2.10;0.40;;;7.60;99.90;;;;;;5023325;28;20900;-69
2021/01/30 05:59:52;;;;;;;3.57;0.77;;;7.60;99.90;;;;;;5015000;28;20466;-69
2021/01/30 06:02:22;;;;;;;1.80;0.20;;;7.60;99.90;;;;;;5020294;28;20441;-69
2021/01/30 06:04:48;;;;;;;1.83;0.20;;;7.50;99.90;;;;;;5018562;28;20426;-70
2021/01/30 06:07:31;;;;;;;1.80;0.20;;;7.50;99.90;;;;;;5013710;28;20468;-70
2021/01/30 06:09:57;;;;;;;1.80;0.20;;;7.50;99.90;;;;;;5016034;28;20735;-70
2021/01/30 06:12:36;;;;;;;1.90;0.60;;;7.50;99.90;;;;;;5025150;28;20456;-70
2021/01/30 06:15:21;;;;;;;1.80;0.20;;;7.50;99.90;;;;;;5023792;28;21013;-70
2021/01/30 06:17:47;;;;;;;2.77;0.60;;;7.40;99.90;;;;;;5004707;28;20445;-70
2021/01/30 06:20:25;;;;;;;1.80;0.20;;;7.50;99.90;;;;;;5016599;28;20452;-70
2021/01/30 06:23:07;;;;;;;1.80;0.20;;;7.50;99.90;;;;;;5012724;28;20781;-70
2021/01/30 06:25:41;;;;;;;2.67;0.60;;;7.40;99.90;;;;;;5013996;28;20450;-69
2021/01/30 06:28:35;;;;;;;2.73;0.93;;;7.50;99.90;;;;;;5013981;28;20837;-70
2021/01/30 06:31:09;;;;;;;3.90;1.03;;;7.40;99.90;;;;;;5014091;28;20821;-69
2021/01/30 06:33:41;;;;;;;1.83;0.30;;;7.40;99.90;;;;;;5014238;28;20477;-69
2021/01/30 06:36:14;;;;;;;1.90;0.40;;;7.40;99.90;;;;;;5013878;28;20503;-71
2021/01/30 06:38:47;;;;;;;4.10;1.20;;;7.40;99.90;;;;;;5012660;28;20436;-69
2021/01/30 06:41:19;;;;;;;1.80;0.20;;;7.30;99.90;;;;;;5009744;28;20475;-69
2021/01/30 06:43:49;;;;;;;2.60;0.93;;;7.40;99.90;;;;;;5013005;28;20447;-69
2021/01/30 06:46:19;;;;;;;2.20;0.57;;;7.40;99.90;;;;;;5014172;28;20454;-70
2021/01/30 06:48:50;;;;;;;1.80;0.30;;;7.40;99.90;;;;;;5012416;28;20457;-69
2021/01/30 06:51:31;;;;;;;3.63;0.93;;;7.40;99.90;;;;;;5011022;28;20499;-71
2021/01/30 06:54:22;;;;;;;3.03;0.97;;;7.30;99.90;;;;;;5011615;28;20508;-69
2021/01/30 06:57:05;;;;;;;1.80;0.20;;;7.30;99.90;;;;;;5014286;28;20477;-68
2021/01/30 06:59:35;;;;;;;4.53;1.97;;;7.40;99.90;;;;;;5014366;28;20451;-69
2021/01/30 07:02:10;;;;;;;2.00;0.67;;;7.30;99.90;;;;;;5012475;28;20435;-69
2021/01/30 07:04:57;;;;;;;4.00;1.90;;;7.30;99.90;;;;;;5011775;28;20469;-68
2021/01/30 07:07:38;;;;;;;2.70;1.60;;;7.30;99.90;;;;;;5015617;28;20552;-68
2021/01/30 07:10:22;;;;;;;3.13;1.03;;;7.30;99.90;;;;;;5008537;28;20453;-69
2021/01/30 07:13:24;;;;;;;5.43;1.97;;;7.40;99.90;;;;;;5012238;28;20457;-69
2021/01/30 07:16:11;;;;;;;2.00;0.60;;;7.40;99.90;;;;;;5017341;28;20445;-69
2021/01/30 07:18:56;;;;;;;1.80;0.20;;;7.40;99.90;;;;;;5013535;28;20444;-69
2021/01/30 07:21:26;;;;;;;1.80;0.20;;;7.40;99.90;;;;;;5010640;28;20817;-69
2021/01/30 07:24:20;;;;;;;2.30;1.33;;;7.40;99.90;;;;;;5020545;28;20483;-69
2021/01/30 07:27:12;;;;;;;9.13;1.27;;;7.40;99.90;;;;;;5016323;28;20935;-68
2021/01/30 07:30:03;;;;;;;9.10;1.40;;;7.40;99.90;;;;;;5016252;28;20454;-70
2021/01/30 07:32:37;;;;;;;1.80;0.20;;;7.40;99.90;;;;;;5032361;28;20437;-72
2021/01/30 07:35:02;;;;;;;10.90;2.53;;;7.40;99.90;;;;;;5032168;28;20452;-70
2021/01/30 07:37:31;;;;;;;3.60;1.90;;;7.40;99.90;;;;;;5036228;28;20462;-72
2021/01/30 07:40:25;;;;;;;2.00;0.70;;;7.40;99.90;;;;;;5031095;28;20229;-69
2021/01/30 07:43:10;;;;;;;2.60;0.80;;;7.40;99.90;;;;;;5029484;28;20465;-69
2021/01/30 07:45:42;;;;;;;4.00;0.77;;;7.40;99.90;;;;;;5017240;28;20465;-69
2021/01/30 07:48:19;;;;;;;1.80;0.20;;;7.40;99.90;;;;;;5018611;28;20522;-70
2021/01/30 07:50:52;;;;;;;9.27;1.97;;;7.40;99.90;;;;;;5014291;28;20480;-69
2021/01/30 07:53:21;;;;;;;4.70;0.50;;;7.40;99.90;;;;;;5013772;28;20504;-70
2021/01/30 07:56:10;;;;;;;2.00;0.40;;;7.40;99.90;;;;;;5014195;28;20465;-70
2021/01/30 07:58:46;;;;;;;1.80;0.20;;;7.40;99.90;;;;;;5014853;28;20417;-69
2021/01/30 08:01:36;;;;;;;2.13;0.57;;;7.50;99.90;;;;;;5022181;28;20453;-69
2021/01/30 08:04:45;;;;;;;1.80;0.20;;;7.50;99.90;;;;;;5028829;28;20556;-70
2021/01/30 08:07:26;;;;;;;1.80;0.20;;;7.50;99.90;;;;;;5024045;28;20445;-70
2021/01/30 08:10:13;;;;;;;11.93;2.63;;;7.50;99.90;;;;;;5024921;28;20468;-69
2021/01/30 08:13:07;;;;;;;2.60;0.77;;;7.50;99.90;;;;;;5013097;28;20469;-70
2021/01/30 08:15:47;;;;;;;4.70;1.80;;;7.50;99.90;;;;;;5010368;28;20445;-71
2021/01/30 08:18:30;;;;;;;5.40;2.07;;;7.60;99.90;;;;;;5014758;28;20814;-69
2021/01/30 08:21:08;;;;;;;4.60;1.47;;;7.50;99.90;;;;;;5017894;28;20458;-69
2021/01/30 08:23:58;;;;;;;1.80;0.20;;;7.50;99.90;;;;;;5011447;28;20445;-70
2021/01/30 08:26:34;;;;;;;8.03;1.27;;;7.60;99.90;;;;;;5011701;28;20441;-69
2021/01/30 08:29:16;;;;;;;7.93;1.93;;;7.60;99.90;;;;;;5005857;28;20471;-68
2021/01/30 08:31:42;;;;;;;2.10;0.60;;;7.60;99.90;;;;;;5011096;28;20465;-69
2021/01/30 08:34:28;;;;;;;10.10;1.90;;;7.60;99.90;;;;;;5007952;28;20473;-69
2021/01/30 08:37:19;;;;;;;1.80;0.20;;;7.60;99.90;;;;;;5013812;28;20657;-71
2021/01/30 08:40:14;;;;;;;1.83;0.20;;;7.70;99.90;;;;;;5001813;28;20481;-68
2021/01/30 08:42:57;;;;;;;2.00;0.33;;;7.70;99.90;;;;;;5013102;28;20528;-67
2021/01/30 08:45:27;;;;;;;11.43;2.40;;;7.80;99.90;;;;;;5014585;28;20544;-67
2021/01/30 08:47:53;;;;;;;3.30;0.53;;;7.80;99.90;;;;;;5013970;28;20462;-67
2021/01/30 08:50:30;;;;;;;2.73;0.77;;;7.70;99.90;;;;;;5014699;28;20719;-66
2021/01/30 08:53:14;;;;;;;1.80;0.20;;;7.70;99.90;;;;;;5010996;28;20723;-68
2021/01/30 08:55:45;;;;;;;4.00;0.80;;;7.70;99.90;;;;;;5012883;28;20466;-67
2021/01/30 08:58:36;;;;;;;1.87;0.20;;;7.60;99.90;;;;;;5027165;28;20442;-67
2021/01/30 09:01:01;;;;;;;1.80;0.20;;;7.60;99.90;;;;;;5016265;28;21023;-68
2021/01/30 09:03:47;;;;;;;1.87;0.20;;;7.60;99.90;;;;;;5012331;28;20433;-68
2021/01/30 09:06:40;;;;;;;2.17;0.57;;;7.60;99.90;;;;;;5018945;28;20249;-67
2021/01/30 09:09:09;;;;;;;1.90;0.20;;;7.60;99.90;;;;;;5013079;28;20981;-68
2021/01/30 09:11:37;;;;;;;5.13;1.70;;;7.50;99.90;;;;;;5016315;28;20553;-68
2021/01/30 09:14:08;;;;;;;6.73;1.53;;;7.60;99.90;;;;;;5013170;28;20465;-67
2021/01/30 09:17:09;;;;;;;4.17;2.30;;;7.50;99.90;;;;;;5012359;28;20473;-67
2021/01/30 09:19:51;;;;;;;2.00;0.50;;;7.40;99.90;;;;;;5007067;28;20442;-68
2021/01/30 09:22:35;;;;;;;3.50;0.90;;;7.40;99.90;;;;;;5011809;28;20515;-67
2021/01/30 09:25:14;;;;;;;1.80;0.20;;;7.40;99.90;;;;;;5012317;28;20481;-67
2021/01/30 09:28:04;;;;;;;2.00;0.40;;;7.40;99.90;;;;;;5012389;28;20808;-67
2021/01/30 09:30:35;;;;;;;3.00;1.63;;;7.00;99.90;;;;;;5011806;28;20461;-67
2021/01/30 09:33:09;;;;;;;2.57;0.80;;;6.70;99.90;;;;;;5009885;28;20457;-68
2021/01/30 09:35:38;;;;;;;1.90;0.20;;;6.50;99.90;;;;;;5014264;28;20432;-67
2021/01/30 09:38:24;;;;;;;2.00;0.40;;;6.30;99.90;;;;;;5016092;28;20445;-68
2021/01/30 09:41:18;;;;;;;2.47;0.50;;;6.00;99.90;;;;;;5019293;28;20468;-68
2021/01/30 09:43:44;;;;;;;1.90;0.20;;;5.90;99.90;;;;;;5022857;28;20445;-68
2021/01/30 09:46:15;;;;;;;2.63;0.50;;;5.70;99.90;;;;;;5022775;28;20487;-68
2021/01/30 09:48:42;;;;;;;2.00;0.33;;;5.50;99.90;;;;;;5025377;28;20206;-68
2021/01/30 09:51:10;;;;;;;1.90;0.20;;;5.40;99.90;;;;;;5027923;28;20494;-67
2021/01/30 09:53:38;;;;;;;1.90;0.30;;;5.30;99.90;;;;;;5027123;28;20872;-67
2021/01/30 09:56:07;;;;;;;1.90;0.30;;;5.40;99.90;;;;;;5032758;28;20468;-67
2021/01/30 09:58:36;;;;;;;1.90;0.30;;;5.40;99.90;;;;;;5020753;28;20459;-67
2021/01/30 10:01:05;;;;;;;2.00;0.35;;;5.40;99.90;;;;;;5013103;28;20211;-67
2021/01/30 10:03:38;;;;;;;1.80;0.20;;;5.40;99.90;;;;;;5021649;28;20186;-67
2021/01/30 10:06:16;;;;;;;2.00;0.47;;;5.40;99.90;;;;;;5012215;28;20179;-67
2021/01/30 10:08:43;;;;;;;1.80;0.20;;;5.30;99.90;;;;;;5012594;28;20178;-68
2021/01/30 10:11:16;;;;;;;2.50;0.55;;;5.30;99.90;;;;;;5027763;28;20225;-65
2021/01/30 10:13:47;;;;;;;1.90;0.20;;;5.30;99.90;;;;;;5029978;28;20220;-67
2021/01/30 10:16:21;;;;;;;2.53;0.40;;;5.30;99.90;;;;;;5029319;28;20480;-67
2021/01/30 10:18:51;;;;;;;1.90;0.20;;;5.20;99.90;;;;;;5034747;28;20222;-67
2021/01/30 10:21:35;;;;;;;2.10;0.68;;;5.20;99.90;;;;;;5033617;28;20258;-67
2021/01/30 10:24:18;;;;;;;3.10;0.95;;;5.30;99.90;;;;;;5030791;28;20182;-65
2021/01/30 10:26:43;;;;;;;1.98;0.30;;;5.30;99.90;;;;;;5020408;28;20680;-67
2021/01/30 10:29:16;;;;;;;1.80;0.20;;;5.20;99.90;;;;;;5020206;28;20187;-66
2021/01/30 10:31:48;;;;;;;2.20;0.40;;;5.30;99.90;;;;;;5015412;28;20213;-67
2021/01/30 10:34:19;;;;;;;1.80;0.20;;;5.40;99.90;;;;;;5014943;28;20213;-66
2021/01/30 10:36:53;;;;;;;1.88;0.20;;;5.40;99.90;;;;;;5014363;28;20286;-64
2021/01/30 10:39:21;;;;;;;2.30;0.50;;;5.40;99.90;;;;;;5011627;28;20229;-67
2021/01/30 10:41:48;;;;;;;1.80;0.20;;;5.40;99.90;;;;;;5013204;28;20312;-67
2021/01/30 10:44:24;;;;;;;2.30;0.70;;;5.30;99.90;;;;;;5012608;28;20170;-67
2021/01/30 10:46:56;;;;;;;1.90;0.20;;;5.30;99.90;;;;;;5014149;28;20182;-67
2021/01/30 10:49:31;;;;;;;2.78;1.00;;;5.20;99.90;;;;;;5031841;28;20190;-66
2021/01/30 10:52:09;;;;;;;2.55;0.60;;;5.00;99.90;;;;;;5019435;28;20190;-66
2021/01/30 10:54:40;;;;;;;2.58;0.88;;;5.10;99.90;;;;;;5013030;28;20301;-67
2021/01/30 10:57:18;;;;;;;1.80;0.20;;;5.00;99.90;;;;;;5012346;28;20178;-66
2021/01/30 11:00:03;;;;;;;1.90;0.30;;;5.10;99.90;;;;;;5017695;28;20233;-66
2021/01/30 11:02:35;;;;;;;4.38;1.65;;;5.20;99.90;;;;;;5015802;28;20231;-66
2021/01/30 11:05:11;;;;;;;2.00;0.63;;;5.20;99.90;;;;;;5011890;28;20672;-66
2021/01/30 11:07:45;;;;;;;2.10;0.50;;;5.00;99.90;;;;;;5012956;28;20197;-66
2021/01/30 11:10:47;;;;;;;1.83;0.20;;;4.90;99.90;;;;;;5016181;28;20626;-66
2021/01/30 11:13:35;;;;;;;1.90;0.28;;;4.80;99.90;;;;;;5013913;28;20202;-67
2021/01/30 11:16:06;;;;;;;1.88;0.20;;;4.90;99.90;;;;;;5018938;28;20654;-67
2021/01/30 11:18:35;;;;;;;2.00;0.50;;;4.90;99.90;;;;;;5014369;28;20213;-66
2021/01/30 11:21:02;;;;;;;2.00;0.50;;;5.00;99.90;;;;;;5017353;28;20203;-69
2021/01/30 11:23:41;;;;;;;1.90;0.30;;;5.00;99.90;;;;;;5024106;28;20217;-66
2021/01/30 11:26:30;;;;;;;2.35;0.73;;;5.10;99.90;;;;;;5022628;28;20218;-66
2021/01/30 11:28:57;;;;;;;2.22;0.55;;;5.00;99.90;;;;;;5007135;28;20221;-66
2021/01/30 11:31:23;;;;;;;2.17;0.63;;;4.90;99.90;;;;;;5015800;28;20198;-67
2021/01/30 11:33:51;;;;;;;2.63;0.75;;;4.90;99.90;;;;;;5015727;28;20630;-66
2021/01/30 11:36:17;;;;;;;5.55;2.22;;;4.90;99.90;;;;;;5012379;28;20225;-68
2021/01/30 11:38:44;;;;;;;3.10;1.27;;;4.90;99.90;;;;;;5013462;28;20190;-67
2021/01/30 11:41:10;;;;;;;2.20;0.50;;;4.70;99.90;;;;;;5014838;28;20217;-67
2021/01/30 11:43:36;;;;;;;1.90;0.20;;;4.80;99.90;;;;;;5011463;28;20178;-67
2021/01/30 11:46:02;;;;;;;1.87;0.20;;;4.90;99.90;;;;;;5013219;28;20183;-67
2021/01/30 11:48:27;;;;;;;2.07;0.40;;;5.00;99.90;;;;;;5009374;28;20193;-66
2021/01/30 11:50:53;;;;;;;1.90;0.20;;;5.10;99.90;;;;;;5013858;28;20804;-66
2021/01/30 11:53:23;;;;;;;2.40;0.97;;;5.00;99.90;;;;;;5010738;28;20225;-66
2021/01/30 11:55:49;;;;;;;2.17;0.70;;;4.90;99.90;;;;;;5011811;28;20194;-68
2021/01/30 11:58:17;;;;;;;3.38;0.75;;;5.00;99.90;;;;;;5017060;28;20185;-66
2021/01/30 12:00:42;;;;;;;2.75;1.35;;;5.00;99.90;;;;;;5013966;28;20209;-67
2021/01/30 12:03:23;;;;;;;1.87;0.20;;;5.00;99.90;;;;;;5016189;28;20178;-66
2021/01/30 12:05:48;;;;;;;1.80;0.20;;;4.90;99.90;;;;;;5017199;28;20233;-67
2021/01/30 12:08:14;;;;;;;1.90;0.40;;;4.90;99.90;;;;;;5013198;28;20186;-68
2021/01/30 12:10:39;;;;;;;3.07;1.10;;;4.90;99.90;;;;;;5016801;28;20252;-66
2021/01/30 12:13:05;;;;;;;2.10;0.47;;;4.80;99.90;;;;;;5016145;28;20998;-66
2021/01/30 12:15:30;;;;;;;1.90;0.30;;;4.90;99.90;;;;;;5018098;28;20261;-66
2021/01/30 12:17:56;;;;;;;4.33;1.70;;;4.80;99.90;;;;;;5017317;28;20305;-67
2021/01/30 12:20:25;;;;;;;2.37;0.50;;;4.70;99.90;;;;;;5022958;28;20205;-65
2021/01/30 12:22:51;;;;;;;2.10;0.65;;;4.70;99.90;;;;;;5016793;28;20187;-66
2021/01/30 12:25:18;;;;;;;1.87;0.20;;;4.80;99.90;;;;;;5015797;28;20181;-66
2021/01/30 12:27:49;;;;;;;2.10;0.70;;;4.70;99.90;;;;;;5014687;28;20265;-65
2021/01/30 12:30:19;;;;;;;2.05;0.47;;;4.70;99.90;;;;;;5011513;28;20210;-67
2021/01/30 12:32:45;;;;;;;2.45;1.25;;;4.70;99.90;;;;;;5015188;28;20229;-66
2021/01/30 12:35:12;;;;;;;1.90;0.20;;;4.70;99.90;;;;;;5015746;28;21345;-65
2021/01/30 12:37:38;;;;;;;2.17;0.63;;;4.80;99.90;;;;;;5014659;28;20333;-67
2021/01/30 12:40:04;;;;;;;4.32;2.20;;;4.90;99.90;;;;;;5020133;28;20205;-66
2021/01/30 12:42:30;;;;;;;2.75;1.10;;;4.80;99.90;;;;;;5018346;28;20266;-67
2021/01/30 12:44:56;;;;;;;3.80;1.87;;;4.80;99.90;;;;;;5016646;28;20227;-67
2021/01/30 12:47:26;;;;;;;5.40;2.60;;;4.70;99.90;;;;;;5029406;28;20188;-68
2021/01/30 12:49:51;;;;;;;2.30;0.70;;;4.70;99.90;;;;;;5035286;28;20285;-68
2021/01/30 12:52:17;;;;;;;1.90;0.30;;;4.70;99.90;;;;;;5030542;28;20186;-67
2021/01/30 12:54:42;;;;;;;2.83;1.57;;;4.70;99.90;;;;;;5014916;28;20203;-67
2021/01/30 12:57:08;;;;;;;3.60;1.50;;;4.60;99.90;;;;;;5018657;28;20205;-66
2021/01/30 12:59:33;;;;;;;2.80;0.90;;;4.60;99.90;;;;;;5014691;28;20668;-66
2021/01/30 13:01:58;;;;;;;2.73;1.27;;;4.70;99.90;;;;;;5016476;28;20577;-67
2021/01/30 13:04:24;;;;;;;1.80;0.20;;;4.70;99.90;;;;;;5017842;28;20386;-66
2021/01/30 13:06:49;;;;;;;2.00;0.77;;;4.80;99.90;;;;;;5013552;28;20726;-67
2021/01/30 13:09:17;;;;;;;1.80;0.20;;;4.90;99.90;;;;;;5013548;28;20190;-67
2021/01/30 13:11:43;;;;;;;4.55;2.08;;;4.90;99.90;;;;;;5017838;28;20210;-66
2021/01/30 13:14:08;;;;;;;1.90;0.30;;;4.70;99.90;;;;;;5008518;28;20256;-66
2021/01/30 13:16:34;;;;;;;3.53;1.70;;;4.60;99.90;;;;;;5020229;28;20696;-67
2021/01/30 13:18:59;;;;;;;1.80;0.20;;;4.50;99.90;;;;;;5018136;28;20178;-67
2021/01/30 13:21:25;;;;;;;2.07;0.50;;;4.50;99.90;;;;;;5019130;28;20214;-68
2021/01/30 13:23:50;;;;;;;3.30;1.70;;;4.60;99.90;;;;;;5019421;28;20182;-67
2021/01/30 13:26:16;;;;;;;1.80;0.20;;;4.60;99.90;;;;;;5013932;28;20285;-67